sensor_id;sensor_type;location;lat;lon;timestamp;P1;durP1;ratioP1;P2;durP2;ratioP2
35981;SDS011;22058;0.000;0.000;2023-09-08T00:01:40;4.00;;;3.58;;
35981;SDS011;22058;0.000;0.000;2023-09-08T00:04:06;3.83;;;3.63;;
35981;SDS011;22058;0.000;0.000;2023-09-08T00:06:32;4.28;;;3.88;;
35981;SDS011;22058;0.000;0.000;2023-09-08T00:08:58;3.47;;;3.25;;
35981;SDS011;22058;0.000;0.000;2023-09-08T00:11:25;4.32;;;3.95;;
35981;SDS011;22058;0.000;0.000;2023-09-08T00:13:51;5.15;;;3.80;;
35981;SDS011;22058;0.000;0.000;2023-09-08T00:16:17;5.38;;;3.78;;
35981;SDS011;22058;0.000;0.000;2023-09-08T00:18:43;3.40;;;3.15;;
35981;SDS011;22058;0.000;0.000;2023-09-08T00:21:09;4.20;;;3.80;;
35981;SDS011;22058;0.000;0.000;2023-09-08T00:23:35;3.80;;;3.38;;
35981;SDS011;22058;0.000;0.000;2023-09-08T00:26:01;3.95;;;3.50;;
35981;SDS011;22058;0.000;0.000;2023-09-08T00:28:27;3.40;;;3.10;;
35981;SDS011;22058;0.000;0.000;2023-09-08T00:30:53;3.55;;;3.33;;
35981;SDS011;22058;0.000;0.000;2023-09-08T00:33:19;4.90;;;2.78;;
35981;SDS011;22058;0.000;0.000;2023-09-08T00:35:50;5.32;;;3.58;;
35981;SDS011;22058;0.000;0.000;2023-09-08T00:38:18;3.55;;;3.35;;
35981;SDS011;22058;0.000;0.000;2023-09-08T00:40:44;3.75;;;2.95;;
35981;SDS011;22058;0.000;0.000;2023-09-08T00:43:11;3.45;;;3.20;;
35981;SDS011;22058;0.000;0.000;2023-09-08T00:45:43;3.58;;;3.22;;
35981;SDS011;22058;0.000;0.000;2023-09-08T00:48:09;3.72;;;3.42;;
35981;SDS011;22058;0.000;0.000;2023-09-08T00:50:36;4.78;;;3.80;;
35981;SDS011;22058;0.000;0.000;2023-09-08T00:53:03;3.25;;;3.05;;
35981;SDS011;22058;0.000;0.000;2023-09-08T00:55:29;3.92;;;3.63;;
35981;SDS011;22058;0.000;0.000;2023-09-08T00:57:56;4.82;;;3.10;;
35981;SDS011;22058;0.000;0.000;2023-09-08T01:00:23;3.63;;;3.33;;
35981;SDS011;22058;0.000;0.000;2023-09-08T01:02:50;3.20;;;3.00;;
35981;SDS011;22058;0.000;0.000;2023-09-08T01:05:16;3.80;;;3.50;;
35981;SDS011;22058;0.000;0.000;2023-09-08T01:07:42;4.50;;;4.10;;
35981;SDS011;22058;0.000;0.000;2023-09-08T01:10:09;2.92;;;2.72;;
35981;SDS011;22058;0.000;0.000;2023-09-08T01:12:38;3.22;;;3.03;;
35981;SDS011;22058;0.000;0.000;2023-09-08T01:15:04;3.30;;;3.00;;
35981;SDS011;22058;0.000;0.000;2023-09-08T01:17:31;3.03;;;2.72;;
35981;SDS011;22058;0.000;0.000;2023-09-08T01:19:59;4.90;;;2.47;;
35981;SDS011;22058;0.000;0.000;2023-09-08T01:27:39;3.47;;;3.17;;
35981;SDS011;22058;0.000;0.000;2023-09-08T01:30:06;2.83;;;2.50;;
35981;SDS011;22058;0.000;0.000;2023-09-08T01:32:33;3.63;;;3.05;;
35981;SDS011;22058;0.000;0.000;2023-09-08T01:35:00;3.30;;;3.05;;
35981;SDS011;22058;0.000;0.000;2023-09-08T01:37:26;2.97;;;2.45;;
35981;SDS011;22058;0.000;0.000;2023-09-08T01:39:52;3.08;;;2.63;;
35981;SDS011;22058;0.000;0.000;2023-09-08T01:42:18;2.63;;;2.42;;
35981;SDS011;22058;0.000;0.000;2023-09-08T01:44:45;2.90;;;2.70;;
35981;SDS011;22058;0.000;0.000;2023-09-08T01:47:11;3.10;;;2.85;;
35981;SDS011;22058;0.000;0.000;2023-09-08T01:49:37;3.38;;;3.08;;
35981;SDS011;22058;0.000;0.000;2023-09-08T01:52:03;3.17;;;2.97;;
35981;SDS011;22058;0.000;0.000;2023-09-08T01:54:29;3.50;;;3.20;;
35981;SDS011;22058;0.000;0.000;2023-09-08T01:56:55;2.72;;;2.53;;
35981;SDS011;22058;0.000;0.000;2023-09-08T01:59:21;3.47;;;3.17;;
35981;SDS011;22058;0.000;0.000;2023-09-08T02:01:47;3.15;;;2.95;;
35981;SDS011;22058;0.000;0.000;2023-09-08T02:04:14;3.10;;;2.67;;
35981;SDS011;22058;0.000;0.000;2023-09-08T02:06:40;2.90;;;2.70;;
35981;SDS011;22058;0.000;0.000;2023-09-08T02:09:07;3.60;;;2.92;;
35981;SDS011;22058;0.000;0.000;2023-09-08T02:11:34;2.42;;;2.28;;
35981;SDS011;22058;0.000;0.000;2023-09-08T02:14:00;2.47;;;2.28;;
35981;SDS011;22058;0.000;0.000;2023-09-08T02:16:26;3.35;;;3.08;;
35981;SDS011;22058;0.000;0.000;2023-09-08T02:18:53;2.55;;;2.40;;
35981;SDS011;22058;0.000;0.000;2023-09-08T02:21:20;2.88;;;2.70;;
35981;SDS011;22058;0.000;0.000;2023-09-08T02:23:46;3.25;;;2.95;;
35981;SDS011;22058;0.000;0.000;2023-09-08T02:26:13;3.53;;;3.30;;
35981;SDS011;22058;0.000;0.000;2023-09-08T02:28:39;3.65;;;3.35;;
35981;SDS011;22058;0.000;0.000;2023-09-08T02:31:05;2.92;;;2.63;;
35981;SDS011;22058;0.000;0.000;2023-09-08T02:33:31;3.92;;;3.63;;
35981;SDS011;22058;0.000;0.000;2023-09-08T02:36:04;2.58;;;2.38;;
35981;SDS011;22058;0.000;0.000;2023-09-08T02:38:31;2.70;;;2.50;;
35981;SDS011;22058;0.000;0.000;2023-09-08T02:40:57;4.65;;;2.63;;
35981;SDS011;22058;0.000;0.000;2023-09-08T02:43:23;7.35;;;2.50;;
35981;SDS011;22058;0.000;0.000;2023-09-08T02:45:49;2.80;;;2.42;;
35981;SDS011;22058;0.000;0.000;2023-09-08T02:48:16;2.85;;;2.47;;
35981;SDS011;22058;0.000;0.000;2023-09-08T02:50:43;2.60;;;2.40;;
35981;SDS011;22058;0.000;0.000;2023-09-08T02:53:09;3.42;;;2.10;;
35981;SDS011;22058;0.000;0.000;2023-09-08T02:55:35;3.42;;;2.97;;
35981;SDS011;22058;0.000;0.000;2023-09-08T02:58:01;2.40;;;2.30;;
35981;SDS011;22058;0.000;0.000;2023-09-08T03:00:27;2.63;;;2.42;;
35981;SDS011;22058;0.000;0.000;2023-09-08T03:02:54;4.18;;;2.90;;
35981;SDS011;22058;0.000;0.000;2023-09-08T03:05:20;3.10;;;2.90;;
35981;SDS011;22058;0.000;0.000;2023-09-08T03:07:49;2.85;;;2.63;;
35981;SDS011;22058;0.000;0.000;2023-09-08T03:10:15;2.75;;;2.53;;
35981;SDS011;22058;0.000;0.000;2023-09-08T03:12:41;3.08;;;2.35;;
35981;SDS011;22058;0.000;0.000;2023-09-08T03:15:08;2.17;;;2.08;;
35981;SDS011;22058;0.000;0.000;2023-09-08T03:17:34;3.08;;;2.88;;
35981;SDS011;22058;0.000;0.000;2023-09-08T03:20:00;2.60;;;2.40;;
35981;SDS011;22058;0.000;0.000;2023-09-08T03:22:27;2.70;;;2.50;;
35981;SDS011;22058;0.000;0.000;2023-09-08T03:24:53;2.38;;;2.22;;
35981;SDS011;22058;0.000;0.000;2023-09-08T03:27:19;3.28;;;2.97;;
35981;SDS011;22058;0.000;0.000;2023-09-08T03:29:45;2.45;;;2.35;;
35981;SDS011;22058;0.000;0.000;2023-09-08T03:32:12;2.90;;;2.65;;
35981;SDS011;22058;0.000;0.000;2023-09-08T03:34:38;2.90;;;2.67;;
35981;SDS011;22058;0.000;0.000;2023-09-08T03:37:05;2.60;;;2.40;;
35981;SDS011;22058;0.000;0.000;2023-09-08T03:39:31;2.53;;;2.40;;
35981;SDS011;22058;0.000;0.000;2023-09-08T03:41:57;2.70;;;2.50;;
35981;SDS011;22058;0.000;0.000;2023-09-08T03:44:23;2.95;;;2.75;;
35981;SDS011;22058;0.000;0.000;2023-09-08T03:46:49;2.58;;;2.40;;
35981;SDS011;22058;0.000;0.000;2023-09-08T03:49:15;3.33;;;3.13;;
35981;SDS011;22058;0.000;0.000;2023-09-08T03:51:41;2.65;;;2.45;;
35981;SDS011;22058;0.000;0.000;2023-09-08T03:54:07;4.07;;;2.75;;
35981;SDS011;22058;0.000;0.000;2023-09-08T03:56:33;2.67;;;2.28;;
35981;SDS011;22058;0.000;0.000;2023-09-08T03:59:00;4.43;;;2.42;;
35981;SDS011;22058;0.000;0.000;2023-09-08T04:01:26;3.20;;;3.00;;
35981;SDS011;22058;0.000;0.000;2023-09-08T04:03:52;3.30;;;2.65;;
35981;SDS011;22058;0.000;0.000;2023-09-08T04:06:18;2.30;;;2.10;;
35981;SDS011;22058;0.000;0.000;2023-09-08T04:08:45;2.40;;;2.30;;
35981;SDS011;22058;0.000;0.000;2023-09-08T04:11:11;3.05;;;2.78;;
35981;SDS011;22058;0.000;0.000;2023-09-08T04:13:38;2.88;;;2.67;;
35981;SDS011;22058;0.000;0.000;2023-09-08T04:16:04;4.78;;;2.58;;
35981;SDS011;22058;0.000;0.000;2023-09-08T04:18:30;3.15;;;2.40;;
35981;SDS011;22058;0.000;0.000;2023-09-08T04:20:56;2.30;;;2.20;;
35981;SDS011;22058;0.000;0.000;2023-09-08T04:23:22;3.78;;;2.60;;
35981;SDS011;22058;0.000;0.000;2023-09-08T04:25:48;3.92;;;2.42;;
35981;SDS011;22058;0.000;0.000;2023-09-08T04:28:14;4.13;;;2.53;;
35981;SDS011;22058;0.000;0.000;2023-09-08T04:30:40;4.20;;;3.22;;
35981;SDS011;22058;0.000;0.000;2023-09-08T04:33:06;3.00;;;2.75;;
35981;SDS011;22058;0.000;0.000;2023-09-08T04:35:33;3.47;;;2.45;;
35981;SDS011;22058;0.000;0.000;2023-09-08T04:37:59;2.83;;;2.63;;
35981;SDS011;22058;0.000;0.000;2023-09-08T04:40:25;3.25;;;2.55;;
35981;SDS011;22058;0.000;0.000;2023-09-08T04:42:51;2.63;;;2.42;;
35981;SDS011;22058;0.000;0.000;2023-09-08T04:45:18;3.22;;;2.92;;
35981;SDS011;22058;0.000;0.000;2023-09-08T04:47:44;10.07;;;3.05;;
35981;SDS011;22058;0.000;0.000;2023-09-08T04:50:11;2.80;;;2.60;;
35981;SDS011;22058;0.000;0.000;2023-09-08T04:52:38;2.80;;;2.60;;
35981;SDS011;22058;0.000;0.000;2023-09-08T04:55:04;2.42;;;2.22;;
35981;SDS011;22058;0.000;0.000;2023-09-08T04:57:30;2.80;;;2.60;;
35981;SDS011;22058;0.000;0.000;2023-09-08T04:59:56;2.65;;;2.45;;
35981;SDS011;22058;0.000;0.000;2023-09-08T05:02:22;3.08;;;2.78;;
35981;SDS011;22058;0.000;0.000;2023-09-08T05:04:49;2.60;;;2.40;;
35981;SDS011;22058;0.000;0.000;2023-09-08T05:07:15;2.83;;;2.63;;
35981;SDS011;22058;0.000;0.000;2023-09-08T05:09:41;2.97;;;2.78;;
35981;SDS011;22058;0.000;0.000;2023-09-08T05:12:07;4.82;;;2.55;;
35981;SDS011;22058;0.000;0.000;2023-09-08T05:14:34;3.70;;;3.00;;
35981;SDS011;22058;0.000;0.000;2023-09-08T05:17:00;9.13;;;2.58;;
35981;SDS011;22058;0.000;0.000;2023-09-08T05:19:26;3.28;;;2.95;;
35981;SDS011;22058;0.000;0.000;2023-09-08T05:21:53;2.88;;;2.28;;
35981;SDS011;22058;0.000;0.000;2023-09-08T05:24:20;2.72;;;2.53;;
35981;SDS011;22058;0.000;0.000;2023-09-08T05:26:46;2.60;;;2.40;;
35981;SDS011;22058;0.000;0.000;2023-09-08T05:29:13;4.57;;;2.28;;
35981;SDS011;22058;0.000;0.000;2023-09-08T05:31:39;2.97;;;2.78;;
35981;SDS011;22058;0.000;0.000;2023-09-08T05:34:05;2.55;;;2.35;;
35981;SDS011;22058;0.000;0.000;2023-09-08T05:36:31;2.90;;;2.63;;
35981;SDS011;22058;0.000;0.000;2023-09-08T05:39:00;3.00;;;2.80;;
35981;SDS011;22058;0.000;0.000;2023-09-08T05:41:27;3.67;;;2.28;;
35981;SDS011;22058;0.000;0.000;2023-09-08T05:43:53;2.50;;;2.30;;
35981;SDS011;22058;0.000;0.000;2023-09-08T05:46:19;3.33;;;2.55;;
35981;SDS011;22058;0.000;0.000;2023-09-08T05:48:46;3.28;;;2.63;;
35981;SDS011;22058;0.000;0.000;2023-09-08T05:51:13;2.83;;;2.60;;
35981;SDS011;22058;0.000;0.000;2023-09-08T05:53:40;2.33;;;2.15;;
35981;SDS011;22058;0.000;0.000;2023-09-08T05:56:06;4.38;;;2.90;;
35981;SDS011;22058;0.000;0.000;2023-09-08T05:58:32;4.45;;;2.90;;
35981;SDS011;22058;0.000;0.000;2023-09-08T06:01:00;2.88;;;2.63;;
35981;SDS011;22058;0.000;0.000;2023-09-08T06:03:27;3.08;;;2.25;;
35981;SDS011;22058;0.000;0.000;2023-09-08T06:05:53;8.80;;;2.20;;
35981;SDS011;22058;0.000;0.000;2023-09-08T06:08:19;3.15;;;2.83;;
35981;SDS011;22058;0.000;0.000;2023-09-08T06:10:45;2.83;;;2.58;;
35981;SDS011;22058;0.000;0.000;2023-09-08T06:13:11;6.25;;;2.53;;
35981;SDS011;22058;0.000;0.000;2023-09-08T06:15:37;2.80;;;2.60;;
35981;SDS011;22058;0.000;0.000;2023-09-08T06:18:03;2.13;;;2.03;;
35981;SDS011;22058;0.000;0.000;2023-09-08T06:20:29;2.30;;;2.10;;
35981;SDS011;22058;0.000;0.000;2023-09-08T06:22:56;2.78;;;2.58;;
35981;SDS011;22058;0.000;0.000;2023-09-08T06:25:22;2.60;;;2.40;;
35981;SDS011;22058;0.000;0.000;2023-09-08T06:27:48;4.97;;;3.00;;
35981;SDS011;22058;0.000;0.000;2023-09-08T06:30:14;6.18;;;4.30;;
35981;SDS011;22058;0.000;0.000;2023-09-08T06:32:41;3.00;;;2.60;;
35981;SDS011;22058;0.000;0.000;2023-09-08T06:35:08;7.55;;;2.20;;
35981;SDS011;22058;0.000;0.000;2023-09-08T06:37:35;3.40;;;2.60;;
35981;SDS011;22058;0.000;0.000;2023-09-08T06:40:01;2.75;;;2.55;;
35981;SDS011;22058;0.000;0.000;2023-09-08T06:42:27;5.22;;;2.78;;
35981;SDS011;22058;0.000;0.000;2023-09-08T06:44:54;2.53;;;2.33;;
35981;SDS011;22058;0.000;0.000;2023-09-08T06:47:20;3.15;;;2.85;;
35981;SDS011;22058;0.000;0.000;2023-09-08T06:49:46;2.72;;;2.53;;
35981;SDS011;22058;0.000;0.000;2023-09-08T06:52:12;4.00;;;2.30;;
35981;SDS011;22058;0.000;0.000;2023-09-08T06:54:38;4.80;;;2.50;;
35981;SDS011;22058;0.000;0.000;2023-09-08T06:57:04;2.53;;;2.20;;
35981;SDS011;22058;0.000;0.000;2023-09-08T06:59:30;2.70;;;2.30;;
35981;SDS011;22058;0.000;0.000;2023-09-08T07:01:56;2.33;;;2.13;;
35981;SDS011;22058;0.000;0.000;2023-09-08T07:04:23;2.78;;;2.50;;
35981;SDS011;22058;0.000;0.000;2023-09-08T07:06:49;3.15;;;2.47;;
35981;SDS011;22058;0.000;0.000;2023-09-08T07:09:15;5.00;;;2.40;;
35981;SDS011;22058;0.000;0.000;2023-09-08T07:11:41;3.08;;;2.72;;
35981;SDS011;22058;0.000;0.000;2023-09-08T07:14:07;2.60;;;2.40;;
35981;SDS011;22058;0.000;0.000;2023-09-08T07:16:33;2.58;;;2.30;;
35981;SDS011;22058;0.000;0.000;2023-09-08T07:18:59;3.85;;;2.60;;
35981;SDS011;22058;0.000;0.000;2023-09-08T07:21:26;6.40;;;2.63;;
35981;SDS011;22058;0.000;0.000;2023-09-08T07:23:52;7.00;;;3.03;;
35981;SDS011;22058;0.000;0.000;2023-09-08T07:26:21;6.32;;;2.88;;
35981;SDS011;22058;0.000;0.000;2023-09-08T07:28:47;3.95;;;2.63;;
35981;SDS011;22058;0.000;0.000;2023-09-08T07:31:14;3.42;;;2.22;;
35981;SDS011;22058;0.000;0.000;2023-09-08T07:33:40;11.27;;;2.95;;
35981;SDS011;22058;0.000;0.000;2023-09-08T07:36:07;5.18;;;3.10;;
35981;SDS011;22058;0.000;0.000;2023-09-08T07:38:33;2.72;;;2.53;;
35981;SDS011;22058;0.000;0.000;2023-09-08T07:41:01;4.53;;;2.33;;
35981;SDS011;22058;0.000;0.000;2023-09-08T07:43:27;5.38;;;3.30;;
35981;SDS011;22058;0.000;0.000;2023-09-08T07:45:53;5.03;;;2.40;;
35981;SDS011;22058;0.000;0.000;2023-09-08T07:48:20;5.28;;;2.80;;
35981;SDS011;22058;0.000;0.000;2023-09-08T07:50:46;2.90;;;2.38;;
35981;SDS011;22058;0.000;0.000;2023-09-08T07:53:12;9.32;;;3.50;;
35981;SDS011;22058;0.000;0.000;2023-09-08T07:55:38;6.22;;;2.70;;
35981;SDS011;22058;0.000;0.000;2023-09-08T07:58:04;3.35;;;2.60;;
35981;SDS011;22058;0.000;0.000;2023-09-08T08:00:30;4.15;;;2.47;;
35981;SDS011;22058;0.000;0.000;2023-09-08T08:02:57;4.88;;;2.42;;
35981;SDS011;22058;0.000;0.000;2023-09-08T08:05:23;4.18;;;2.42;;
35981;SDS011;22058;0.000;0.000;2023-09-08T08:07:50;5.85;;;2.22;;
35981;SDS011;22058;0.000;0.000;2023-09-08T08:10:16;3.33;;;3.03;;
35981;SDS011;22058;0.000;0.000;2023-09-08T08:12:43;4.78;;;2.22;;
35981;SDS011;22058;0.000;0.000;2023-09-08T08:15:09;8.13;;;2.20;;
35981;SDS011;22058;0.000;0.000;2023-09-08T08:17:36;3.85;;;2.67;;
35981;SDS011;22058;0.000;0.000;2023-09-08T08:20:03;3.05;;;2.50;;
35981;SDS011;22058;0.000;0.000;2023-09-08T08:22:41;2.88;;;2.28;;
35981;SDS011;22058;0.000;0.000;2023-09-08T08:25:08;2.47;;;2.28;;
35981;SDS011;22058;0.000;0.000;2023-09-08T08:27:34;3.45;;;3.00;;
35981;SDS011;22058;0.000;0.000;2023-09-08T08:30:00;5.95;;;2.63;;
35981;SDS011;22058;0.000;0.000;2023-09-08T08:32:27;3.75;;;2.65;;
35981;SDS011;22058;0.000;0.000;2023-09-08T08:34:53;6.32;;;2.38;;
35981;SDS011;22058;0.000;0.000;2023-09-08T08:37:19;6.70;;;2.10;;
35981;SDS011;22058;0.000;0.000;2023-09-08T08:39:46;5.72;;;2.20;;
35981;SDS011;22058;0.000;0.000;2023-09-08T08:42:12;4.82;;;2.60;;
35981;SDS011;22058;0.000;0.000;2023-09-08T08:44:39;3.25;;;2.75;;
35981;SDS011;22058;0.000;0.000;2023-09-08T08:47:09;2.05;;;1.95;;
35981;SDS011;22058;0.000;0.000;2023-09-08T08:49:36;2.42;;;2.17;;
35981;SDS011;22058;0.000;0.000;2023-09-08T08:52:04;2.65;;;2.45;;
35981;SDS011;22058;0.000;0.000;2023-09-08T08:54:37;2.58;;;2.40;;
35981;SDS011;22058;0.000;0.000;2023-09-08T08:57:04;3.92;;;2.55;;
35981;SDS011;22058;0.000;0.000;2023-09-08T08:59:30;3.58;;;3.10;;
35981;SDS011;22058;0.000;0.000;2023-09-08T09:01:57;6.38;;;2.60;;
35981;SDS011;22058;0.000;0.000;2023-09-08T09:04:24;5.10;;;2.47;;
35981;SDS011;22058;0.000;0.000;2023-09-08T09:06:51;3.13;;;2.70;;
35981;SDS011;22058;0.000;0.000;2023-09-08T09:09:18;3.70;;;2.70;;
35981;SDS011;22058;0.000;0.000;2023-09-08T09:11:45;3.78;;;2.63;;
35981;SDS011;22058;0.000;0.000;2023-09-08T09:14:11;3.17;;;2.92;;
35981;SDS011;22058;0.000;0.000;2023-09-08T09:16:41;2.60;;;2.33;;
35981;SDS011;22058;0.000;0.000;2023-09-08T09:19:08;3.67;;;3.38;;
35981;SDS011;22058;0.000;0.000;2023-09-08T09:21:44;2.70;;;2.50;;
35981;SDS011;22058;0.000;0.000;2023-09-08T09:24:16;3.83;;;2.65;;
35981;SDS011;22058;0.000;0.000;2023-09-08T09:26:42;6.97;;;3.05;;
35981;SDS011;22058;0.000;0.000;2023-09-08T09:29:14;2.97;;;2.78;;
35981;SDS011;22058;0.000;0.000;2023-09-08T09:31:50;2.80;;;2.53;;
35981;SDS011;22058;0.000;0.000;2023-09-08T09:34:17;4.88;;;2.75;;
35981;SDS011;22058;0.000;0.000;2023-09-08T09:36:43;3.20;;;2.58;;
35981;SDS011;22058;0.000;0.000;2023-09-08T09:39:11;6.65;;;2.47;;
35981;SDS011;22058;0.000;0.000;2023-09-08T09:41:37;4.03;;;2.80;;
35981;SDS011;22058;0.000;0.000;2023-09-08T09:44:04;4.35;;;2.30;;
35981;SDS011;22058;0.000;0.000;2023-09-08T09:46:31;3.40;;;3.05;;
35981;SDS011;22058;0.000;0.000;2023-09-08T09:48:58;3.65;;;3.17;;
35981;SDS011;22058;0.000;0.000;2023-09-08T09:51:24;3.40;;;2.60;;
35981;SDS011;22058;0.000;0.000;2023-09-08T09:53:50;3.15;;;2.95;;
35981;SDS011;22058;0.000;0.000;2023-09-08T09:56:17;3.95;;;3.55;;
35981;SDS011;22058;0.000;0.000;2023-09-08T09:58:43;3.22;;;2.80;;
35981;SDS011;22058;0.000;0.000;2023-09-08T10:01:10;3.55;;;3.17;;
35981;SDS011;22058;0.000;0.000;2023-09-08T10:03:39;3.95;;;3.22;;
35981;SDS011;22058;0.000;0.000;2023-09-08T10:06:06;3.47;;;2.88;;
35981;SDS011;22058;0.000;0.000;2023-09-08T10:08:33;8.30;;;3.03;;
35981;SDS011;22058;0.000;0.000;2023-09-08T10:11:02;12.43;;;3.17;;
35981;SDS011;22058;0.000;0.000;2023-09-08T10:13:30;3.15;;;2.92;;
35981;SDS011;22058;0.000;0.000;2023-09-08T10:15:58;5.18;;;3.08;;
35981;SDS011;22058;0.000;0.000;2023-09-08T10:18:24;4.85;;;2.78;;
35981;SDS011;22058;0.000;0.000;2023-09-08T10:20:51;5.70;;;2.58;;
35981;SDS011;22058;0.000;0.000;2023-09-08T10:23:22;6.60;;;3.55;;
35981;SDS011;22058;0.000;0.000;2023-09-08T10:25:50;6.23;;;2.97;;
35981;SDS011;22058;0.000;0.000;2023-09-08T10:28:21;3.10;;;2.80;;
35981;SDS011;22058;0.000;0.000;2023-09-08T10:30:47;3.83;;;3.17;;
35981;SDS011;22058;0.000;0.000;2023-09-08T10:33:14;3.75;;;3.25;;
35981;SDS011;22058;0.000;0.000;2023-09-08T10:35:41;5.57;;;2.83;;
35981;SDS011;22058;0.000;0.000;2023-09-08T10:38:24;4.78;;;2.95;;
35981;SDS011;22058;0.000;0.000;2023-09-08T10:40:51;4.30;;;3.25;;
35981;SDS011;22058;0.000;0.000;2023-09-08T10:43:17;3.67;;;2.67;;
35981;SDS011;22058;0.000;0.000;2023-09-08T10:45:45;5.78;;;3.08;;
35981;SDS011;22058;0.000;0.000;2023-09-08T10:48:11;7.13;;;3.42;;
35981;SDS011;22058;0.000;0.000;2023-09-08T10:50:40;6.13;;;3.20;;
35981;SDS011;22058;0.000;0.000;2023-09-08T10:53:11;6.22;;;2.90;;
35981;SDS011;22058;0.000;0.000;2023-09-08T10:55:47;8.00;;;3.20;;
35981;SDS011;22058;0.000;0.000;2023-09-08T10:58:17;4.03;;;3.20;;
35981;SDS011;22058;0.000;0.000;2023-09-08T11:00:51;5.55;;;4.25;;
35981;SDS011;22058;0.000;0.000;2023-09-08T11:03:27;3.60;;;3.30;;
35981;SDS011;22058;0.000;0.000;2023-09-08T11:05:55;3.10;;;2.90;;
35981;SDS011;22058;0.000;0.000;2023-09-08T11:08:21;2.80;;;2.55;;
35981;SDS011;22058;0.000;0.000;2023-09-08T11:10:48;5.25;;;3.55;;
35981;SDS011;22058;0.000;0.000;2023-09-08T11:13:16;5.00;;;3.13;;
35981;SDS011;22058;0.000;0.000;2023-09-08T11:15:42;3.60;;;2.95;;
35981;SDS011;22058;0.000;0.000;2023-09-08T11:18:08;4.13;;;2.75;;
35981;SDS011;22058;0.000;0.000;2023-09-08T11:20:34;3.58;;;3.08;;
35981;SDS011;22058;0.000;0.000;2023-09-08T11:23:00;5.82;;;4.35;;
35981;SDS011;22058;0.000;0.000;2023-09-08T11:25:26;6.93;;;3.50;;
35981;SDS011;22058;0.000;0.000;2023-09-08T11:27:54;4.55;;;2.88;;
35981;SDS011;22058;0.000;0.000;2023-09-08T11:30:20;7.53;;;3.85;;
35981;SDS011;22058;0.000;0.000;2023-09-08T11:32:46;4.90;;;3.70;;
35981;SDS011;22058;0.000;0.000;2023-09-08T11:35:13;11.20;;;3.53;;
35981;SDS011;22058;0.000;0.000;2023-09-08T11:37:40;4.57;;;3.25;;
35981;SDS011;22058;0.000;0.000;2023-09-08T11:40:07;6.57;;;3.22;;
35981;SDS011;22058;0.000;0.000;2023-09-08T11:42:38;4.57;;;2.92;;
35981;SDS011;22058;0.000;0.000;2023-09-08T11:45:18;4.35;;;3.22;;
35981;SDS011;22058;0.000;0.000;2023-09-08T11:47:46;3.50;;;3.25;;
35981;SDS011;22058;0.000;0.000;2023-09-08T11:50:14;7.15;;;3.92;;
35981;SDS011;22058;0.000;0.000;2023-09-08T11:52:43;8.20;;;4.05;;
35981;SDS011;22058;0.000;0.000;2023-09-08T11:55:11;4.60;;;3.53;;
35981;SDS011;22058;0.000;0.000;2023-09-08T11:57:38;4.03;;;3.72;;
35981;SDS011;22058;0.000;0.000;2023-09-08T12:00:04;7.18;;;3.90;;
35981;SDS011;22058;0.000;0.000;2023-09-08T12:02:34;7.07;;;3.35;;
35981;SDS011;22058;0.000;0.000;2023-09-08T12:05:02;3.83;;;3.05;;
35981;SDS011;22058;0.000;0.000;2023-09-08T12:07:28;6.10;;;4.00;;
35981;SDS011;22058;0.000;0.000;2023-09-08T12:09:54;5.45;;;4.00;;
35981;SDS011;22058;0.000;0.000;2023-09-08T12:12:20;8.57;;;4.50;;
35981;SDS011;22058;0.000;0.000;2023-09-08T12:14:46;4.32;;;3.92;;
35981;SDS011;22058;0.000;0.000;2023-09-08T12:17:12;4.57;;;4.13;;
35981;SDS011;22058;0.000;0.000;2023-09-08T12:19:42;3.63;;;3.13;;
35981;SDS011;22058;0.000;0.000;2023-09-08T12:22:08;5.50;;;3.63;;
35981;SDS011;22058;0.000;0.000;2023-09-08T12:27:32;4.47;;;3.95;;
35981;SDS011;22058;0.000;0.000;2023-09-08T12:30:02;4.55;;;4.10;;
35981;SDS011;22058;0.000;0.000;2023-09-08T12:32:30;10.43;;;4.97;;
35981;SDS011;22058;0.000;0.000;2023-09-08T12:34:57;8.48;;;4.60;;
35981;SDS011;22058;0.000;0.000;2023-09-08T12:37:24;8.50;;;4.45;;
35981;SDS011;22058;0.000;0.000;2023-09-08T12:39:55;4.90;;;4.20;;
35981;SDS011;22058;0.000;0.000;2023-09-08T12:42:22;5.65;;;4.25;;
35981;SDS011;22058;0.000;0.000;2023-09-08T12:44:53;5.32;;;4.35;;
35981;SDS011;22058;0.000;0.000;2023-09-08T12:47:19;5.18;;;4.78;;
35981;SDS011;22058;0.000;0.000;2023-09-08T12:49:46;4.40;;;4.00;;
35981;SDS011;22058;0.000;0.000;2023-09-08T12:52:12;4.65;;;4.25;;
35981;SDS011;22058;0.000;0.000;2023-09-08T12:54:38;4.50;;;4.10;;
35981;SDS011;22058;0.000;0.000;2023-09-08T12:57:04;5.28;;;4.50;;
35981;SDS011;22058;0.000;0.000;2023-09-08T12:59:31;3.92;;;3.63;;
35981;SDS011;22058;0.000;0.000;2023-09-08T13:01:57;7.78;;;4.35;;
35981;SDS011;22058;0.000;0.000;2023-09-08T13:04:23;5.20;;;4.20;;
35981;SDS011;22058;0.000;0.000;2023-09-08T13:06:49;6.10;;;4.57;;
35981;SDS011;22058;0.000;0.000;2023-09-08T13:09:15;4.18;;;3.78;;
35981;SDS011;22058;0.000;0.000;2023-09-08T13:11:42;8.35;;;4.22;;
35981;SDS011;22058;0.000;0.000;2023-09-08T13:14:08;6.00;;;4.63;;
35981;SDS011;22058;0.000;0.000;2023-09-08T13:16:34;4.93;;;4.40;;
35981;SDS011;22058;0.000;0.000;2023-09-08T13:19:00;5.50;;;4.35;;
35981;SDS011;22058;0.000;0.000;2023-09-08T13:21:27;4.95;;;4.55;;
35981;SDS011;22058;0.000;0.000;2023-09-08T13:23:53;4.78;;;4.35;;
35981;SDS011;22058;0.000;0.000;2023-09-08T13:26:19;4.25;;;3.95;;
35981;SDS011;22058;0.000;0.000;2023-09-08T13:28:45;5.47;;;4.20;;
35981;SDS011;22058;0.000;0.000;2023-09-08T13:31:11;6.80;;;4.90;;
35981;SDS011;22058;0.000;0.000;2023-09-08T13:33:37;5.78;;;4.35;;
35981;SDS011;22058;0.000;0.000;2023-09-08T13:36:03;3.63;;;3.30;;
35981;SDS011;22058;0.000;0.000;2023-09-08T13:38:30;4.25;;;3.92;;
35981;SDS011;22058;0.000;0.000;2023-09-08T13:40:56;7.22;;;4.35;;
35981;SDS011;22058;0.000;0.000;2023-09-08T13:43:22;5.45;;;4.50;;
35981;SDS011;22058;0.000;0.000;2023-09-08T13:45:48;5.60;;;4.00;;
35981;SDS011;22058;0.000;0.000;2023-09-08T13:48:14;5.03;;;4.63;;
35981;SDS011;22058;0.000;0.000;2023-09-08T13:50:40;6.65;;;3.80;;
35981;SDS011;22058;0.000;0.000;2023-09-08T13:53:06;5.88;;;4.30;;
35981;SDS011;22058;0.000;0.000;2023-09-08T13:55:33;4.63;;;4.00;;
35981;SDS011;22058;0.000;0.000;2023-09-08T13:57:59;5.95;;;4.32;;
35981;SDS011;22058;0.000;0.000;2023-09-08T14:00:25;6.00;;;4.85;;
35981;SDS011;22058;0.000;0.000;2023-09-08T14:02:51;8.65;;;5.03;;
35981;SDS011;22058;0.000;0.000;2023-09-08T14:05:17;6.35;;;4.18;;
35981;SDS011;22058;0.000;0.000;2023-09-08T14:07:44;4.30;;;4.00;;
35981;SDS011;22058;0.000;0.000;2023-09-08T14:10:10;5.25;;;4.63;;
35981;SDS011;22058;0.000;0.000;2023-09-08T14:12:36;5.53;;;3.88;;
35981;SDS011;22058;0.000;0.000;2023-09-08T14:15:03;5.78;;;4.72;;
35981;SDS011;22058;0.000;0.000;2023-09-08T14:17:29;5.25;;;4.70;;
35981;SDS011;22058;0.000;0.000;2023-09-08T14:19:55;9.02;;;4.93;;
35981;SDS011;22058;0.000;0.000;2023-09-08T14:22:21;9.90;;;5.50;;
35981;SDS011;22058;0.000;0.000;2023-09-08T14:24:47;9.38;;;3.75;;
35981;SDS011;22058;0.000;0.000;2023-09-08T14:27:13;6.75;;;5.00;;
35981;SDS011;22058;0.000;0.000;2023-09-08T14:29:39;11.10;;;4.60;;
35981;SDS011;22058;0.000;0.000;2023-09-08T14:32:05;6.30;;;4.53;;
35981;SDS011;22058;0.000;0.000;2023-09-08T14:34:31;4.75;;;4.35;;
35981;SDS011;22058;0.000;0.000;2023-09-08T14:36:57;10.15;;;4.90;;
35981;SDS011;22058;0.000;0.000;2023-09-08T14:39:26;7.70;;;4.70;;
35981;SDS011;22058;0.000;0.000;2023-09-08T14:41:53;6.50;;;4.65;;
35981;SDS011;22058;0.000;0.000;2023-09-08T14:44:20;4.40;;;3.85;;
35981;SDS011;22058;0.000;0.000;2023-09-08T14:46:47;4.78;;;4.38;;
35981;SDS011;22058;0.000;0.000;2023-09-08T14:49:14;8.20;;;4.88;;
35981;SDS011;22058;0.000;0.000;2023-09-08T14:51:40;7.93;;;3.90;;
35981;SDS011;22058;0.000;0.000;2023-09-08T14:54:06;6.88;;;4.85;;
35981;SDS011;22058;0.000;0.000;2023-09-08T14:56:32;6.88;;;4.45;;
35981;SDS011;22058;0.000;0.000;2023-09-08T14:58:59;6.00;;;4.80;;
35981;SDS011;22058;0.000;0.000;2023-09-08T15:01:25;4.60;;;4.20;;
35981;SDS011;22058;0.000;0.000;2023-09-08T15:03:51;7.80;;;4.20;;
35981;SDS011;22058;0.000;0.000;2023-09-08T15:06:17;6.70;;;4.25;;